Time;durP1;ratioP1;P1;durP2;ratioP2;P2;SDS_P1;SDS_P2;PMS_P1;PMS_P2;Temp;Humidity;BMP_temperature;BMP_pressure;BME280_temperature;BME280_humidity;BME280_pressure;Samples;Min_cycle;Max_cycle;Signal;HPM_P1;HPM_P2
2022/06/06 00:02:22;;;;;;;3.28;2.97;;;;;;;23.15;44.88;94793.38;4995365;28;20218;-63
2022/06/06 00:04:48;;;;;;;4.50;3.10;;;;;;;23.03;44.96;94784.50;4993296;28;20231;-72
2022/06/06 00:07:13;;;;;;;3.38;2.75;;;;;;;22.97;44.98;94797.00;4999729;28;20249;-65
2022/06/06 00:09:39;;;;;;;5.78;2.95;;;;;;;22.83;45.28;94784.88;4992385;28;20219;-70
2022/06/06 00:12:06;;;;;;;5.93;3.85;;;;;;;22.81;46.38;94803.84;4999394;28;20311;-71
2022/06/06 00:14:32;;;;;;;4.70;3.47;;;;;;;22.62;47.33;94780.91;5003738;28;20262;-71
2022/06/06 00:16:58;;;;;;;5.05;3.38;;;;;;;22.65;47.10;94783.09;4994023;28;20805;-67
2022/06/06 00:19:24;;;;;;;5.82;2.97;;;;;;;22.71;46.26;94786.72;4997116;28;20218;-72
2022/06/06 00:21:50;;;;;;;4.35;3.00;;;;;;;22.57;46.06;94786.13;4999050;28;20231;-73
2022/06/06 00:24:16;;;;;;;5.45;2.90;;;;;;;21.99;47.47;94783.06;5004284;28;20219;-66
2022/06/06 00:26:42;;;;;;;3.33;3.03;;;;;;;22.20;47.19;94775.59;5002289;28;20254;-65
2022/06/06 00:29:09;;;;;;;4.97;3.20;;;;;;;22.37;46.97;94784.59;5000820;28;20292;-65
2022/06/06 00:37:06;;;;;;;3.63;2.83;;;;;;;22.54;46.76;94759.81;5000814;28;20281;-67
2022/06/06 00:39:32;;;;;;;5.30;3.33;;;;;;;22.65;46.17;94756.31;4993604;28;20239;-66
2022/06/06 00:41:57;;;;;;;2.95;2.70;;;;;;;22.62;46.08;94746.06;5000613;28;20226;-64
2022/06/06 00:44:32;;;;;;;5.15;3.08;;;;;;;22.55;45.74;94740.78;5006704;28;20214;-66
2022/06/06 00:47:07;;;;;;;4.15;2.70;;;;;;;22.50;45.92;94743.34;4996190;28;20219;-71
2022/06/06 00:49:46;;;;;;;4.00;2.85;;;;;;;22.28;46.50;94737.75;4995550;28;20210;-70
2022/06/06 00:52:23;;;;;;;5.18;3.45;;;;;;;22.33;46.36;94727.16;5003571;28;20198;-71
2022/06/06 00:54:53;;;;;;;3.22;2.88;;;;;;;22.30;46.56;94724.97;5007717;28;20234;-64
2022/06/06 00:57:28;;;;;;;6.82;3.35;;;;;;;22.43;46.48;94715.88;4995307;28;20219;-71
2022/06/06 00:59:54;;;;;;;4.60;3.80;;;;;;;22.39;46.68;94710.16;5000736;28;20234;-71
2022/06/06 01:02:20;;;;;;;4.43;3.40;;;;;;;22.46;46.91;94710.88;5003952;28;20242;-71
2022/06/06 01:04:46;;;;;;;3.95;3.05;;;;;;;22.45;46.91;94703.88;4991604;28;20317;-66
2022/06/06 01:07:12;;;;;;;3.83;3.33;;;;;;;22.42;47.11;94700.84;4995044;28;20263;-65
2022/06/06 01:09:40;;;;;;;5.68;3.45;;;;;;;22.35;47.16;94692.94;4995323;28;20219;-72
2022/06/06 01:12:17;;;;;;;5.63;3.88;;;;;;;22.33;47.45;94687.00;5003165;28;20231;-64
2022/06/06 01:15:00;;;;;;;4.95;3.20;;;;;;;22.38;47.57;94683.63;4998703;28;20249;-64
2022/06/06 01:17:30;;;;;;;3.53;3.22;;;;;;;22.34;47.58;94685.94;4996979;28;20226;-72
2022/06/06 01:20:14;;;;;;;4.32;3.70;;;;;;;22.45;47.58;94685.13;4998043;28;20311;-71
2022/06/06 01:23:18;;;;;;;5.60;3.30;;;;;;;22.34;48.10;94672.53;5011003;28;20214;-71
2022/06/06 01:25:52;;;;;;;5.95;4.03;;;;;;;22.29;49.58;94661.69;4978378;28;20303;-66
2022/06/06 01:28:49;;;;;;;4.28;3.80;;;;;;;22.43;49.71;94652.41;4984191;28;20271;-71
2022/06/06 01:31:41;;;;;;;7.47;4.40;;;;;;;22.43;48.67;94668.47;4977376;28;20337;-65
2022/06/06 01:34:09;;;;;;;5.15;4.15;;;;;;;22.60;48.69;94673.13;5004390;28;20226;-71
2022/06/06 01:36:37;;;;;;;5.30;4.38;;;;;;;22.62;48.74;94681.75;4984864;28;20223;-70
2022/06/06 01:39:09;;;;;;;4.85;4.30;;;;;;;22.52;49.56;94684.19;4981094;28;20230;-67
2022/06/06 01:42:14;;;;;;;4.65;4.18;;;;;;;22.43;50.97;94743.50;4999209;28;20223;-64
2022/06/06 01:44:47;;;;;;;6.18;4.47;;;;;;;22.05;53.05;94821.50;4935303;29;20244;-66
2022/06/06 01:47:17;;;;;;;6.80;5.25;;;;;;;21.85;54.25;94811.06;4949452;28;20228;-71
2022/06/06 01:49:45;;;;;;;26.67;9.32;;;;;;;21.71;59.94;94858.59;4950126;28;20697;-64
2022/06/06 01:52:13;;;;;;;17.88;9.23;;;;;;;21.32;65.85;94849.97;4936334;28;20232;-67
2022/06/06 01:54:41;;;;;;;21.05;9.27;;;;;;;21.15;66.10;94838.22;4933827;28;20274;-70
2022/06/06 01:57:11;;;;;;;21.70;9.55;;;;;;;20.75;69.17;94801.19;4917780;29;20576;-66
2022/06/06 01:59:37;;;;;;;16.25;7.95;;;;;;;20.41;68.17;94773.13;4930153;29;20237;-75
2022/06/06 02:02:03;;;;;;;12.93;7.15;;;;;;;20.51;67.49;94756.59;4914302;29;20237;-73
2022/06/06 02:04:29;;;;;;;12.77;7.47;;;;;;;20.50;68.92;94777.13;4914142;29;20226;-74
2022/06/06 02:06:54;;;;;;;10.85;7.30;;;;;;;20.55;68.99;94784.53;4930155;29;20228;-68
2022/06/06 02:09:19;;;;;;;11.90;7.63;;;;;;;20.60;70.38;94787.38;4931496;28;20296;-72
2022/06/06 02:11:45;;;;;;;13.00;8.32;;;;;;;20.78;71.46;94784.72;4918795;29;20233;-73
2022/06/06 02:14:11;;;;;;;12.88;6.20;;;;;;;20.85;71.10;94796.19;4916392;29;20348;-65
2022/06/06 02:16:38;;;;;;;10.95;5.82;;;;;;;20.95;69.34;94806.34;4913043;29;20214;-72
2022/06/06 02:19:05;;;;;;;8.93;5.57;;;;;;;20.95;69.03;94817.03;4930856;29;20210;-70
2022/06/06 02:21:31;;;;;;;8.30;4.63;;;;;;;21.03;67.74;94816.75;5000388;28;20223;-65
2022/06/06 02:23:56;;;;;;;9.60;4.57;;;;;;;21.10;65.12;94851.44;5004958;28;20226;-67
2022/06/06 02:26:22;;;;;;;7.05;4.10;;;;;;;20.95;67.80;94850.97;4999278;28;20302;-65
2022/06/06 02:28:48;;;;;;;6.85;3.70;;;;;;;20.89;67.19;94860.69;4997827;28;20229;-65
2022/06/06 02:31:13;;;;;;;10.30;3.80;;;;;;;20.83;66.72;94877.59;5005351;28;20208;-68
2022/06/06 02:33:39;;;;;;;7.72;3.85;;;;;;;20.92;66.54;94898.47;4995076;28;20242;-68
2022/06/06 02:36:05;;;;;;;10.57;4.53;;;;;;;20.98;69.57;94899.44;5002386;28;20259;-74
2022/06/06 02:38:32;;;;;;;11.88;5.43;;;;;;;21.02;70.85;94897.16;4997103;28;20364;-74
2022/06/06 02:41:10;;;;;;;12.40;6.05;;;;;;;20.96;71.71;94874.81;5004438;28;20224;-73
2022/06/06 02:43:42;;;;;;;10.50;5.72;;;;;;;20.87;72.36;94865.41;5001103;28;20210;-71
2022/06/06 02:46:09;;;;;;;13.00;6.72;;;;;;;20.77;70.42;94830.34;5016422;28;20199;-71
2022/06/06 02:48:35;;;;;;;9.15;6.20;;;;;;;20.70;72.42;94822.41;4994658;28;20223;-71
2022/06/06 02:51:04;;;;;;;8.10;6.32;;;;;;;20.66;72.48;94802.50;4994799;28;20219;-75
2022/06/06 02:53:30;;;;;;;8.13;5.70;;;;;;;20.58;72.37;94792.94;4994383;28;20373;-64
2022/06/06 02:55:57;;;;;;;13.57;6.82;;;;;;;20.56;74.15;94754.94;4999366;28;20229;-71
2022/06/06 02:58:24;;;;;;;8.43;6.50;;;;;;;20.55;74.38;94747.94;4996572;28;20200;-65
2022/06/06 03:00:57;;;;;;;10.20;6.50;;;;;;;20.55;74.56;94737.25;5006125;28;20656;-64
2022/06/06 03:03:23;;;;;;;8.73;6.25;;;;;;;20.70;74.15;94744.94;5012392;28;20220;-71
2022/06/06 03:06:16;;;;;;;9.52;5.75;;;;;;;20.61;74.05;94749.75;5005364;28;20310;-68
2022/06/06 03:08:47;;;;;;;14.85;6.35;;;;;;;20.52;73.99;94764.38;4990938;28;20294;-65
2022/06/06 03:11:29;;;;;;;8.88;6.00;;;;;;;20.65;73.36;94779.50;4986310;28;20229;-69
2022/06/06 03:14:10;;;;;;;10.20;6.03;;;;;;;20.77;74.09;94791.13;4998046;28;20297;-71
2022/06/06 03:22:48;;;;;;;9.88;6.88;;;;;;;20.77;75.48;94817.00;4995320;28;20272;-68
2022/06/06 03:25:28;;;;;;;12.48;8.15;;;;;;;20.88;74.76;94825.13;5006169;28;20203;-65
2022/06/06 03:28:04;;;;;;;11.40;7.68;;;;;;;20.89;74.47;94833.97;5004161;28;20249;-68
2022/06/06 03:31:00;;;;;;;12.80;8.23;;;;;;;20.91;74.40;94839.91;5002650;28;20230;-72
2022/06/06 03:33:44;;;;;;;11.98;7.97;;;;;;;20.85;74.22;94846.09;5002772;28;20285;-72
2022/06/06 03:36:10;;;;;;;10.75;7.70;;;;;;;20.84;73.26;94863.19;4994797;28;20236;-70
2022/06/06 03:38:56;;;;;;;10.52;8.43;;;;;;;20.87;73.85;94860.88;4984799;28;20226;-72
2022/06/06 03:41:44;;;;;;;11.10;8.18;;;;;;;20.76;74.00;94858.13;5005598;28;20207;-68
2022/06/06 03:44:28;;;;;;;12.07;8.23;;;;;;;20.56;73.99;94856.44;4995263;28;20234;-68
2022/06/06 03:47:08;;;;;;;11.50;8.23;;;;;;;20.41;73.74;94847.88;4991377;28;20231;-72
2022/06/06 03:49:52;;;;;;;11.27;8.68;;;;;;;20.57;73.59;94842.03;5010436;28;20207;-71
2022/06/06 03:52:35;;;;;;;10.23;7.63;;;;;;;20.48;73.89;94846.81;5004304;28;20217;-64
2022/06/06 03:55:16;;;;;;;12.07;8.30;;;;;;;20.52;73.66;94851.72;5005708;28;20219;-64
2022/06/06 03:57:45;;;;;;;14.93;8.95;;;;;;;20.55;72.35;94849.44;4994839;28;20219;-70
2022/06/06 04:00:13;;;;;;;9.57;8.55;;;;;;;20.59;71.99;94858.69;5000501;28;20301;-65
2022/06/06 04:02:41;;;;;;;12.65;8.90;;;;;;;20.56;72.49;94850.28;5000311;28;20219;-72
2022/06/06 04:05:11;;;;;;;11.73;8.38;;;;;;;20.57;72.52;94843.91;4998023;28;20289;-72
2022/06/06 04:07:36;;;;;;;9.73;8.23;;;;;;;20.42;73.22;94841.50;5001997;28;20214;-72
2022/06/06 04:10:03;;;;;;;13.18;8.48;;;;;;;20.49;72.75;94835.09;4999826;28;20195;-68
2022/06/06 04:12:59;;;;;;;11.35;9.30;;;;;;;20.40;73.65;94828.38;5006640;28;20253;-72
2022/06/06 04:15:37;;;;;;;11.80;9.48;;;;;;;20.50;73.29;94825.22;5008668;28;20243;-72
2022/06/06 04:18:05;;;;;;;11.55;10.25;;;;;;;20.52;73.00;94825.81;4996470;28;20227;-71
2022/06/06 04:20:36;;;;;;;10.85;9.70;;;;;;;20.45;72.96;94825.88;4999643;28;20227;-65
2022/06/06 04:23:22;;;;;;;11.93;9.40;;;;;;;20.50;73.30;94833.22;5002998;28;20223;-72
2022/06/06 04:26:10;;;;;;;10.98;9.93;;;;;;;20.51;74.38;94829.53;5009924;28;20641;-71
2022/06/06 04:29:03;;;;;;;11.20;9.70;;;;;;;20.55;74.24;94825.41;4996040;28;20190;-70
2022/06/06 04:31:57;;;;;;;11.10;9.30;;;;;;;20.38;72.97;94829.63;4992244;28;20576;-69
2022/06/06 04:34:26;;;;;;;10.68;9.50;;;;;;;20.27;73.39;94834.63;4991078;28;20198;-64
2022/06/06 04:36:59;;;;;;;12.18;8.98;;;;;;;20.24;73.84;94832.41;4999131;28;20261;-66
2022/06/06 04:39:30;;;;;;;11.07;9.20;;;;;;;20.32;73.42;94822.50;4991097;28;20223;-71
2022/06/06 04:42:04;;;;;;;10.90;9.73;;;;;;;20.40;73.42;94836.41;5007933;28;20227;-71
2022/06/06 04:45:01;;;;;;;9.23;8.35;;;;;;;20.60;72.20;94832.78;4998021;28;20219;-68
2022/06/06 04:47:30;;;;;;;9.35;8.45;;;;;;;20.96;69.94;94829.38;4994449;28;20220;-67
2022/06/06 04:49:57;;;;;;;11.55;8.50;;;;;;;21.06;69.35;94839.53;5001418;28;20266;-63
2022/06/06 04:52:23;;;;;;;9.73;8.73;;;;;;;21.19;69.30;94842.06;4974011;28;20210;-69
2022/06/06 04:54:48;;;;;;;8.75;7.85;;;;;;;20.72;70.96;94835.56;4994117;28;20619;-68
2022/06/06 04:57:17;;;;;;;10.60;8.50;;;;;;;21.10;70.02;94830.88;4994917;28;20218;-66
2022/06/06 04:59:44;;;;;;;9.20;7.97;;;;;;;21.04;70.07;94845.13;4984966;28;20262;-69
2022/06/06 05:02:11;;;;;;;8.43;7.43;;;;;;;21.17;68.29;94849.53;4993858;28;20318;-67
2022/06/06 05:04:36;;;;;;;12.23;9.05;;;;;;;20.95;68.94;94848.28;4982448;28;20222;-65
2022/06/06 05:07:27;;;;;;;10.73;8.75;;;;;;;20.92;69.78;94849.56;4977337;28;20270;-62
2022/06/06 05:10:17;;;;;;;13.07;10.02;;;;;;;20.89;70.55;94850.81;4976618;28;20239;-62
2022/06/06 05:13:08;;;;;;;11.73;9.63;;;;;;;20.74;70.63;94849.50;4992101;28;20302;-70
2022/06/06 05:15:45;;;;;;;12.45;10.73;;;;;;;20.64;71.49;94861.50;4994053;28;20239;-65
2022/06/06 05:18:23;;;;;;;12.10;10.35;;;;;;;20.82;71.52;94860.75;4994674;28;20223;-68
2022/06/06 05:21:13;;;;;;;12.45;10.55;;;;;;;20.81;71.62;94858.28;4982398;28;20227;-68
2022/06/06 05:23:55;;;;;;;11.90;10.70;;;;;;;20.87;71.22;94857.41;4994192;28;20227;-68
2022/06/06 05:26:26;;;;;;;13.00;11.55;;;;;;;20.83;70.95;94862.38;4999378;28;20254;-67
2022/06/06 05:29:33;;;;;;;11.52;10.07;;;;;;;20.99;69.98;94865.53;5002244;28;20309;-65
2022/06/06 05:32:18;;;;;;;13.85;10.80;;;;;;;21.10;70.00;94870.16;4982636;28;20298;-68
2022/06/06 05:34:53;;;;;;;12.90;8.75;;;;;;;21.03;69.40;94864.84;4957555;28;20337;-68
2022/06/06 05:37:28;;;;;;;13.18;9.63;;;;;;;21.02;69.61;94860.56;4968300;28;20263;-64
2022/06/06 05:40:13;;;;;;;10.25;7.72;;;;;;;21.30;67.67;94859.25;4971436;28;20227;-68
2022/06/06 05:43:09;;;;;;;9.55;7.32;;;;;;;21.32;66.75;94867.88;4981421;28;20228;-68
2022/06/06 05:45:53;;;;;;;12.35;8.25;;;;;;;21.11;67.79;94864.56;4973904;28;20312;-64
2022/06/06 05:48:54;;;;;;;7.63;6.13;;;;;;;21.54;65.15;94877.13;4974726;28;20227;-69
2022/06/06 05:51:38;;;;;;;8.73;6.97;;;;;;;21.83;64.25;94860.53;4963827;28;20211;-69
2022/06/06 05:54:25;;;;;;;10.80;7.10;;;;;;;22.29;63.98;94865.25;4962171;28;20232;-66
2022/06/06 05:56:51;;;;;;;12.10;6.70;;;;;;;22.41;63.42;94863.44;4961851;28;20348;-65
2022/06/06 05:59:51;;;;;;;7.10;5.85;;;;;;;21.65;64.66;94864.03;4961574;28;20274;-65
2022/06/06 06:02:45;;;;;;;8.98;5.88;;;;;;;21.32;64.69;94870.53;4964274;28;20231;-69
2022/06/06 06:05:28;;;;;;;8.07;5.35;;;;;;;21.11;65.69;94867.25;4875369;29;20234;-71
2022/06/06 06:08:27;;;;;;;8.57;5.82;;;;;;;21.69;65.46;94866.03;4874020;29;20297;-65
2022/06/06 06:11:03;;;;;;;10.10;7.18;;;;;;;22.13;65.25;94872.06;4901194;28;20249;-72
2022/06/06 06:14:01;;;;;;;8.73;6.45;;;;;;;22.31;63.10;94871.22;4906467;29;20198;-70
2022/06/06 06:16:32;;;;;;;12.45;7.22;;;;;;;22.41;63.08;94868.00;4856631;29;20251;-64
2022/06/06 06:19:01;;;;;;;11.10;6.88;;;;;;;22.20;63.91;94872.00;4870847;29;20231;-64
2022/06/06 06:21:33;;;;;;;13.30;7.25;;;;;;;22.19;63.44;94865.03;4872100;29;20227;-66
2022/06/06 06:24:06;;;;;;;10.82;8.02;;;;;;;22.50;62.19;94857.75;4873417;29;20724;-71
2022/06/06 06:26:32;;;;;;;8.52;7.63;;;;;;;22.64;61.00;94856.50;4889356;29;20231;-68
2022/06/06 06:29:04;;;;;;;9.45;7.78;;;;;;;22.56;61.13;94864.88;4888844;29;20322;-64
2022/06/06 06:31:31;;;;;;;10.93;7.03;;;;;;;22.64;61.12;94867.22;4892627;29;20217;-67
2022/06/06 06:34:11;;;;;;;8.85;7.80;;;;;;;22.83;61.19;94865.28;4893417;29;20353;-66
2022/06/06 06:36:56;;;;;;;8.07;7.30;;;;;;;23.00;61.57;94862.75;4889116;29;20231;-67
2022/06/06 06:39:58;;;;;;;10.60;7.80;;;;;;;23.12;61.54;94860.88;4888048;29;20239;-64
2022/06/06 06:43:13;;;;;;;9.73;7.43;;;;;;;22.98;60.50;94848.75;4902021;29;20314;-63
2022/06/06 06:46:13;;;;;;;10.63;7.15;;;;;;;22.65;61.24;94847.44;4922655;29;20284;-62
2022/06/06 06:48:44;;;;;;;13.55;7.95;;;;;;;22.75;62.47;94839.63;4913875;29;20229;-62
2022/06/06 06:51:21;;;;;;;11.90;8.10;;;;;;;22.76;62.32;94833.22;4927502;29;20230;-65
2022/06/06 06:54:19;;;;;;;12.23;9.60;;;;;;;22.71;61.79;94819.69;4905361;29;20237;-65
2022/06/06 06:56:57;;;;;;;12.40;8.75;;;;;;;22.78;62.12;94820.41;4907472;29;20259;-63
2022/06/06 06:59:42;;;;;;;14.23;9.98;;;;;;;22.76;61.51;94813.66;4908355;29;20232;-64
2022/06/06 07:08:33;;;;;;;12.50;8.48;;;;;;;22.79;63.49;94803.25;4916303;28;20261;-64
2022/06/06 07:11:33;;;;;;;11.65;9.65;;;;;;;22.71;62.58;94802.78;4905885;29;20222;-66
2022/06/06 07:14:17;;;;;;;15.38;9.57;;;;;;;22.67;63.79;94813.19;4905972;29;20313;-66
2022/06/06 07:16:49;;;;;;;12.57;9.75;;;;;;;22.58;64.30;94809.19;4919462;28;20293;-64
2022/06/06 07:19:22;;;;;;;18.27;9.93;;;;;;;23.08;63.54;94793.50;4932646;28;20208;-64
2022/06/06 07:21:49;;;;;;;13.10;9.90;;;;;;;23.26;64.80;94795.22;4954848;28;20229;-64
2022/06/06 07:24:23;;;;;;;15.10;9.32;;;;;;;23.38;61.42;94783.66;4959756;28;20260;-63
2022/06/06 07:26:49;;;;;;;12.93;8.35;;;;;;;23.40;61.59;94787.72;4955915;28;20220;-64
2022/06/06 07:29:19;;;;;;;13.98;9.27;;;;;;;23.62;62.43;94785.19;4957413;28;20769;-62
2022/06/06 07:31:59;;;;;;;13.25;9.63;;;;;;;23.78;62.41;94791.72;4961140;28;20203;-62
2022/06/06 07:34:43;;;;;;;14.80;11.15;;;;;;;23.50;62.17;94795.16;4953237;28;20212;-66
2022/06/06 07:37:12;;;;;;;15.68;10.70;;;;;;;23.78;62.33;94799.75;4971394;28;20231;-64
2022/06/06 07:39:49;;;;;;;13.60;11.48;;;;;;;23.97;61.39;94806.56;4957910;28;20236;-64
2022/06/06 07:42:24;;;;;;;16.25;12.38;;;;;;;23.80;60.86;94810.28;4964525;28;20232;-64
2022/06/06 07:45:24;;;;;;;17.20;14.73;;;;;;;24.06;60.85;94812.38;4958848;28;20327;-64
2022/06/06 07:48:14;;;;;;;15.55;10.55;;;;;;;24.36;60.13;94797.84;4957819;28;20260;-65
2022/06/06 07:51:01;;;;;;;15.18;12.02;;;;;;;24.34;58.09;94799.97;4960883;28;20231;-64
2022/06/06 07:53:50;;;;;;;16.20;11.15;;;;;;;24.23;59.66;94803.53;4959713;28;20220;-64
2022/06/06 07:56:47;;;;;;;14.60;11.13;;;;;;;24.37;59.28;94800.28;4964272;28;20224;-65
2022/06/06 07:59:28;;;;;;;15.20;10.55;;;;;;;24.70;58.57;94808.63;4963847;28;20707;-68
2022/06/06 08:02:20;;;;;;;14.82;8.57;;;;;;;24.76;57.21;94808.47;4960131;28;20232;-67
2022/06/06 08:04:54;;;;;;;12.30;8.23;;;;;;;24.99;57.21;94807.50;4950396;28;20231;-65
2022/06/06 08:07:50;;;;;;;15.05;8.75;;;;;;;25.08;57.67;94811.38;4958715;28;20230;-68
2022/06/06 08:10:18;;;;;;;9.75;8.73;;;;;;;25.27;57.28;94805.75;4972106;28;20272;-71
2022/06/06 08:13:02;;;;;;;17.45;9.18;;;;;;;25.50;56.40;94807.38;4962095;28;20232;-67
2022/06/06 08:15:45;;;;;;;14.07;8.75;;;;;;;25.55;55.86;94814.72;4964901;28;20623;-63
2022/06/06 08:18:14;;;;;;;12.70;7.82;;;;;;;25.57;55.87;94809.91;4999199;28;20227;-69
2022/06/06 08:21:24;;;;;;;11.75;7.47;;;;;;;25.59;54.47;94808.59;4999255;28;20315;-69
2022/06/06 08:23:55;;;;;;;15.65;5.40;;;;;;;25.51;52.03;94817.09;4956284;28;20232;-67
2022/06/06 08:26:24;;;;;;;17.02;5.50;;;;;;;25.14;51.80;94825.72;4945043;28;20228;-66
2022/06/06 08:28:50;;;;;;;11.52;5.75;;;;;;;25.28;51.99;94823.50;4956494;28;20283;-72
2022/06/06 08:31:15;;;;;;;11.13;5.13;;;;;;;24.96;51.55;94821.41;4956366;28;20208;-66
2022/06/06 08:33:41;;;;;;;8.95;5.32;;;;;;;25.16;51.03;94833.59;4962847;28;20227;-70
2022/06/06 08:36:07;;;;;;;10.35;5.63;;;;;;;25.26;50.60;94833.69;4949546;28;20255;-70
2022/06/06 08:38:57;;;;;;;12.70;5.05;;;;;;;25.57;50.30;94828.75;4946655;28;20236;-69
2022/06/06 08:41:49;;;;;;;8.32;4.88;;;;;;;25.56;48.40;94810.97;4963613;28;20342;-69
2022/06/06 08:44:23;;;;;;;14.77;5.00;;;;;;;25.53;48.05;94813.09;4957718;28;20295;-71
2022/06/06 08:47:01;;;;;;;8.63;4.65;;;;;;;25.27;47.92;94819.19;4942854;28;20343;-70
2022/06/06 08:52:47;;;;;;;10.48;4.88;;;;;;;25.37;49.84;94838.19;4964669;28;20287;-64
2022/06/06 08:55:18;;;;;;;11.60;4.95;;;;;;;25.17;51.65;94840.59;4990714;28;20231;-74
2022/06/06 08:58:06;;;;;;;10.52;4.78;;;;;;;25.09;52.24;94842.59;5002646;28;20290;-63
2022/06/06 09:00:38;;;;;;;12.80;5.35;;;;;;;24.94;52.32;94847.75;4996436;28;20222;-62
2022/06/06 09:03:38;;;;;;;9.85;4.03;;;;;;;24.70;51.15;94838.22;5008948;28;20231;-69
2022/06/06 09:06:12;;;;;;;7.45;4.15;;;;;;;24.37;49.86;94850.53;4998665;28;20319;-69
2022/06/06 09:09:03;;;;;;;5.90;3.03;;;;;;;24.30;49.34;94860.59;5000713;28;20306;-68
2022/06/06 09:11:34;;;;;;;4.65;3.33;;;;;;;23.95;49.40;94873.16;4995661;28;20231;-66
2022/06/06 09:14:37;;;;;;;7.35;3.65;;;;;;;23.75;50.80;94860.13;4994948;28;20231;-63
2022/06/06 09:17:27;;;;;;;8.75;3.92;;;;;;;23.18;52.34;94881.41;5010307;28;20226;-65
2022/06/06 09:20:20;;;;;;;22.17;9.38;;;;;;;23.26;61.64;94907.06;4992391;28;20234;-67
2022/06/06 09:23:23;;;;;;;14.93;7.43;;;;;;;22.93;64.88;94900.34;4987678;28;20215;-68
2022/06/06 09:26:21;;;;;;;10.30;5.60;;;;;;;22.86;63.65;94897.00;4969788;28;20239;-64
2022/06/06 09:29:24;;;;;;;8.43;5.47;;;;;;;22.98;64.30;94902.38;4977759;28;20224;-69
2022/06/06 09:31:53;;;;;;;6.50;5.30;;;;;;;22.81;64.16;94916.44;4964822;28;20638;-66
2022/06/06 09:34:50;;;;;;;7.03;4.97;;;;;;;22.86;63.06;94919.25;4984893;28;20203;-67
2022/06/06 09:37:45;;;;;;;6.90;5.00;;;;;;;23.17;61.48;94914.63;4911355;29;20226;-65
2022/06/06 09:40:18;;;;;;;5.57;4.95;;;;;;;23.14;58.70;94909.75;4909054;29;20258;-63
2022/06/06 09:43:08;;;;;;;8.40;5.35;;;;;;;23.45;58.53;94910.44;4909743;29;20230;-70
2022/06/06 09:45:52;;;;;;;11.90;4.43;;;;;;;23.91;57.15;94901.53;4907828;29;20230;-69
2022/06/06 09:48:42;;;;;;;8.05;4.22;;;;;;;24.03;55.69;94903.34;4907988;29;20233;-71
2022/06/06 09:51:13;;;;;;;5.82;4.03;;;;;;;23.99;54.80;94897.66;4907430;29;20255;-65
2022/06/06 10:00:29;;;;;;;7.78;4.22;;;;;;;25.10;51.53;94889.16;4907079;29;20249;-69
2022/06/06 10:03:12;;;;;;;6.43;4.05;;;;;;;25.25;49.80;94885.91;4907317;29;20254;-65
2022/06/06 10:06:04;;;;;;;6.38;3.13;;;;;;;25.91;45.87;94889.53;4892912;29;20238;-69
2022/06/06 10:08:56;;;;;;;5.70;3.00;;;;;;;25.91;44.00;94889.53;4905091;29;20237;-65
2022/06/06 10:12:01;;;;;;;3.90;3.50;;;;;;;25.46;49.76;94890.53;4907498;29;20226;-65
2022/06/06 10:14:34;;;;;;;3.45;3.15;;;;;;;24.95;47.74;94911.25;4916082;29;20233;-66
2022/06/06 10:17:27;;;;;;;4.72;3.45;;;;;;;25.07;49.50;94897.69;4949780;28;20291;-65
2022/06/06 10:20:13;;;;;;;5.28;3.90;;;;;;;25.12;50.20;94903.16;4998513;28;20285;-64
2022/06/06 10:22:50;;;;;;;6.72;3.55;;;;;;;24.98;48.42;94905.38;5003685;28;20248;-64
2022/06/06 10:25:22;;;;;;;6.28;3.38;;;;;;;24.79;50.48;94920.13;5001051;28;20215;-65
2022/06/06 10:28:06;;;;;;;7.05;4.10;;;;;;;24.10;54.80;94917.47;4998458;28;20234;-65
2022/06/06 10:30:34;;;;;;;5.53;4.05;;;;;;;23.70;56.05;94918.22;5009996;28;20302;-65
2022/06/06 10:33:24;;;;;;;7.65;4.97;;;;;;;23.15;57.53;94914.06;4993273;28;20313;-66
2022/06/06 10:35:54;;;;;;;9.55;5.18;;;;;;;23.14;59.99;94903.56;4991977;28;20241;-72
2022/06/06 10:38:38;;;;;;;9.27;4.60;;;;;;;23.07;60.58;94899.13;4989736;28;20234;-73
2022/06/06 10:41:25;;;;;;;8.27;4.15;;;;;;;23.00;57.73;94908.34;4997554;28;20245;-73
2022/06/06 10:44:13;;;;;;;11.20;5.68;;;;;;;23.01;62.57;94915.31;4992538;28;20227;-73
2022/06/06 10:46:47;;;;;;;5.60;4.05;;;;;;;22.87;63.08;94907.47;4993784;28;20213;-65
2022/06/06 10:49:29;;;;;;;5.13;4.35;;;;;;;23.09;59.32;94901.56;4998150;28;20213;-67
2022/06/06 10:52:25;;;;;;;6.97;4.18;;;;;;;22.95;60.93;94892.09;5003714;28;20218;-67
2022/06/06 10:55:06;;;;;;;7.20;4.90;;;;;;;23.06;62.64;94877.91;4997833;28;20241;-64
2022/06/06 10:57:34;;;;;;;5.10;4.60;;;;;;;22.84;62.17;94883.81;4995651;28;20361;-67
2022/06/06 11:00:08;;;;;;;6.65;4.78;;;;;;;22.50;62.44;94906.00;4992933;28;20981;-61
2022/06/06 11:02:55;;;;;;;6.97;5.65;;;;;;;22.57;65.67;94912.06;5013156;28;20275;-67
2022/06/06 11:05:36;;;;;;;6.05;4.50;;;;;;;22.53;64.02;94913.56;4995090;28;20223;-71
2022/06/06 11:08:38;;;;;;;7.43;5.47;;;;;;;22.20;68.00;94896.09;5016640;28;20227;-62
2022/06/06 11:11:31;;;;;;;5.90;4.57;;;;;;;22.52;65.64;94891.31;5014235;28;20269;-67
2022/06/06 11:14:04;;;;;;;4.97;4.45;;;;;;;22.72;64.92;94887.50;5012673;28;20281;-66
2022/06/06 11:17:03;;;;;;;5.00;4.25;;;;;;;22.76;64.22;94891.38;5010888;28;20334;-67
2022/06/06 11:19:34;;;;;;;5.40;4.18;;;;;;;22.80;61.65;94906.78;4994794;28;20212;-67
2022/06/06 11:22:18;;;;;;;4.88;4.47;;;;;;;22.58;65.45;94911.00;5013665;28;20206;-67
2022/06/06 11:24:50;;;;;;;3.72;3.42;;;;;;;22.91;63.08;94894.44;4991883;28;20219;-63
2022/06/06 11:27:27;;;;;;;4.50;3.90;;;;;;;23.02;62.56;94896.34;4994615;28;20232;-67
2022/06/06 11:30:22;;;;;;;6.65;4.55;;;;;;;23.28;62.09;94892.38;4989513;28;20954;-64
2022/06/06 11:33:09;;;;;;;5.20;4.18;;;;;;;23.16;61.02;94896.91;4960005;28;20239;-65
2022/06/06 11:35:54;;;;;;;4.55;4.15;;;;;;;23.09;63.09;94880.13;4945765;28;20228;-61
2022/06/06 11:38:46;;;;;;;5.15;4.10;;;;;;;23.26;61.69;94875.69;4942794;28;20232;-67
2022/06/06 11:41:50;;;;;;;5.32;3.80;;;;;;;23.28;60.95;94886.19;4953620;28;20275;-66
2022/06/06 11:44:40;;;;;;;5.13;4.70;;;;;;;23.31;60.05;94886.53;4902577;29;20231;-68
2022/06/06 11:47:13;;;;;;;4.22;3.78;;;;;;;23.51;58.02;94890.72;4902247;29;20249;-68
2022/06/06 11:50:03;;;;;;;5.30;4.22;;;;;;;23.20;60.63;94881.16;4905769;29;20226;-67
2022/06/06 11:52:47;;;;;;;4.13;3.72;;;;;;;23.48;57.53;94883.94;4890830;29;20530;-64
2022/06/06 11:55:15;;;;;;;6.53;4.40;;;;;;;23.47;56.58;94893.06;4904313;29;20222;-66
2022/06/06 11:58:05;;;;;;;4.38;3.97;;;;;;;23.41;57.41;94896.66;4890881;29;20229;-64
2022/06/06 12:00:33;;;;;;;5.07;4.20;;;;;;;23.49;56.25;94887.44;4897454;29;20226;-63
2022/06/06 12:03:23;;;;;;;4.50;4.10;;;;;;;23.52;56.93;94897.72;4887839;29;20313;-66
2022/06/06 12:06:00;;;;;;;5.28;4.20;;;;;;;23.22;57.97;94885.25;4888827;29;20234;-65
2022/06/06 12:08:35;;;;;;;6.63;4.50;;;;;;;22.92;61.59;94885.34;4904955;29;20218;-67
2022/06/06 12:11:37;;;;;;;5.63;5.03;;;;;;;23.06;60.48;94880.59;4921711;29;20227;-69
2022/06/06 12:14:24;;;;;;;5.63;4.18;;;;;;;22.58;59.62;94874.31;4916663;29;20234;-65
2022/06/06 12:17:21;;;;;;;7.35;6.13;;;;;;;22.90;57.94;94871.34;4922827;29;20256;-64
2022/06/06 12:20:09;;;;;;;5.32;4.55;;;;;;;22.83;60.56;94871.47;4926619;28;20228;-68
2022/06/06 12:22:56;;;;;;;6.38;4.95;;;;;;;23.08;59.65;94865.09;5014744;28;20265;-66
2022/06/06 12:25:30;;;;;;;9.60;5.05;;;;;;;23.02;58.26;94847.25;4997384;28;20209;-61
2022/06/06 12:28:17;;;;;;;11.70;6.30;;;;;;;22.85;60.43;94847.94;4994288;28;20235;-62
2022/06/06 12:31:25;;;;;;;8.48;4.70;;;;;;;22.92;57.49;94841.63;4997652;28;20234;-62
2022/06/06 12:34:28;;;;;;;5.40;4.90;;;;;;;23.26;57.30;94853.44;4945939;28;20239;-63
2022/06/06 12:37:18;;;;;;;7.10;5.03;;;;;;;23.28;57.34;94867.41;4944973;28;20295;-62
2022/06/06 12:39:49;;;;;;;7.90;4.53;;;;;;;23.41;56.54;94872.53;4947513;28;20216;-68
2022/06/06 12:42:30;;;;;;;20.90;7.53;;;;;;;23.39;58.79;94879.16;4945599;28;20576;-62
2022/06/06 12:45:11;;;;;;;7.65;5.65;;;;;;;23.51;57.44;94877.31;4963888;28;20230;-69
2022/06/06 12:47:42;;;;;;;17.30;7.07;;;;;;;23.42;58.00;94884.09;4942504;28;20227;-67
2022/06/06 12:50:47;;;;;;;12.25;5.60;;;;;;;23.56;56.91;94885.47;4942145;28;20251;-63
2022/06/06 12:54:00;;;;;;;7.80;4.38;;;;;;;23.42;56.02;94886.78;4963062;28;20220;-65